createdAt,value
2018-10-05T00:00:58.464Z,1017.94
2018-10-05T00:01:58.479Z,1017.92
2018-10-05T00:02:58.454Z,1017.91
2018-10-05T00:03:58.460Z,1017.89
2018-10-05T00:04:58.467Z,1017.87
2018-10-05T00:05:58.492Z,1017.85
2018-10-05T00:06:58.455Z,1017.83
2018-10-05T00:07:58.473Z,1017.84
2018-10-05T00:08:58.460Z,1017.84
2018-10-05T00:09:58.447Z,1017.80
2018-10-05T00:10:58.485Z,1017.81
2018-10-05T00:11:58.473Z,1017.82
2018-10-05T00:12:58.471Z,1017.80
2018-10-05T00:13:58.474Z,1017.78
2018-10-05T00:14:58.485Z,1017.76
2018-10-05T00:15:58.471Z,1017.76
2018-10-05T00:16:58.485Z,1017.78
2018-10-05T00:17:58.481Z,1017.77
2018-10-05T00:18:58.486Z,1017.79
2018-10-05T00:19:58.469Z,1017.79
2018-10-05T00:20:58.480Z,1017.82
2018-10-05T00:21:58.473Z,1017.83
2018-10-05T00:22:58.473Z,1017.83
2018-10-05T00:23:58.479Z,1017.86
2018-10-05T00:24:58.489Z,1017.86
2018-10-05T00:25:58.470Z,1017.85
2018-10-05T00:26:58.501Z,1017.83
2018-10-05T00:27:58.491Z,1017.81
2018-10-05T00:28:58.503Z,1017.84
2018-10-05T00:29:58.472Z,1017.87
2018-10-05T00:30:58.498Z,1017.82
2018-10-05T00:31:58.523Z,1017.84
2018-10-05T00:32:58.491Z,1017.80
2018-10-05T00:33:58.495Z,1017.77
2018-10-05T00:34:58.485Z,1017.80
2018-10-05T00:35:58.501Z,1017.77
2018-10-05T00:36:58.488Z,1017.76
2018-10-05T00:37:58.555Z,1017.78
2018-10-05T00:38:58.479Z,1017.76
2018-10-05T00:39:58.546Z,1017.72
2018-10-05T00:40:58.504Z,1017.71
2018-10-05T00:41:58.488Z,1017.67
2018-10-05T00:42:58.475Z,1017.68
2018-10-05T00:43:58.495Z,1017.62
2018-10-05T00:44:58.498Z,1017.67
2018-10-05T00:45:58.489Z,1017.66
2018-10-05T00:46:58.529Z,1017.61
2018-10-05T00:47:58.500Z,1017.60
2018-10-05T00:48:58.508Z,1017.60
2018-10-05T00:49:58.516Z,1017.59
2018-10-05T00:50:58.538Z,1017.58
2018-10-05T00:51:58.513Z,1017.59
2018-10-05T00:52:58.502Z,1017.58
2018-10-05T00:53:58.517Z,1017.58
2018-10-05T00:54:58.513Z,1017.57
2018-10-05T00:55:58.503Z,1017.51
2018-10-05T00:56:58.495Z,1017.54
2018-10-05T00:57:58.543Z,1017.53
2018-10-05T00:58:58.518Z,1017.53
2018-10-05T00:59:58.509Z,1017.51
2018-10-05T01:00:58.525Z,1017.50
2018-10-05T01:01:58.505Z,1017.49
2018-10-05T01:02:58.513Z,1017.47
2018-10-05T01:03:58.505Z,1017.45
2018-10-05T01:04:58.533Z,1017.47
2018-10-05T01:05:58.518Z,1017.42
2018-10-05T01:06:58.517Z,1017.45
2018-10-05T01:07:58.510Z,1017.42
2018-10-05T01:08:58.516Z,1017.37
2018-10-05T01:09:58.519Z,1017.38
2018-10-05T01:10:58.561Z,1017.36
2018-10-05T01:11:58.530Z,1017.35
2018-10-05T01:12:58.505Z,1017.38
2018-10-05T01:13:58.528Z,1017.34
2018-10-05T01:14:58.508Z,1017.36
2018-10-05T01:15:58.530Z,1017.31
2018-10-05T01:16:58.501Z,1017.33
2018-10-05T01:17:58.551Z,1017.29
2018-10-05T01:18:58.567Z,1017.30
2018-10-05T01:19:58.539Z,1017.30
2018-10-05T01:20:58.550Z,1017.27
2018-10-05T01:21:58.530Z,1017.28
2018-10-05T01:22:58.593Z,1017.24
2018-10-05T01:23:58.528Z,1017.27
2018-10-05T01:24:58.598Z,1017.24
2018-10-05T01:25:58.511Z,1017.22
2018-10-05T01:26:58.521Z,1017.23
2018-10-05T01:27:58.518Z,1017.22
2018-10-05T01:28:58.518Z,1017.23
2018-10-05T01:29:58.544Z,1017.20
2018-10-05T01:30:58.544Z,1017.20
2018-10-05T01:31:58.529Z,1017.18
2018-10-05T01:32:58.528Z,1017.17
2018-10-05T01:33:58.566Z,1017.18
2018-10-05T01:34:58.532Z,1017.16
2018-10-05T01:35:58.567Z,1017.18
2018-10-05T01:36:58.533Z,1017.15
2018-10-05T01:37:58.526Z,1017.17
2018-10-05T01:38:58.622Z,1017.17
2018-10-05T01:39:58.531Z,1017.17
2018-10-05T01:40:58.534Z,1017.18
2018-10-05T01:41:58.523Z,1017.18
2018-10-05T01:42:58.530Z,1017.20
2018-10-05T01:43:58.522Z,1017.18
2018-10-05T01:44:58.543Z,1017.22
2018-10-05T01:45:58.550Z,1017.17
2018-10-05T01:46:58.583Z,1017.21
2018-10-05T01:47:58.547Z,1017.12
2018-10-05T01:48:58.557Z,1017.13
2018-10-05T01:49:58.538Z,1017.16
2018-10-05T01:50:58.549Z,1017.11
2018-10-05T01:51:58.530Z,1017.13
2018-10-05T01:52:58.531Z,1017.10
2018-10-05T01:53:58.563Z,1017.12
2018-10-05T01:54:58.553Z,1017.10
2018-10-05T01:55:58.552Z,1017.07
2018-10-05T01:56:58.563Z,1017.09
2018-10-05T01:57:58.528Z,1017.08
2018-10-05T01:58:58.544Z,1017.03
2018-10-05T01:59:58.572Z,1017.04
2018-10-05T02:00:58.557Z,1017.02
2018-10-05T02:01:58.537Z,1017.02
2018-10-05T02:02:58.541Z,1017.01
2018-10-05T02:03:58.560Z,1017.02
2018-10-05T02:04:58.532Z,1017.02
2018-10-05T02:05:58.554Z,1016.99
2018-10-05T02:06:58.574Z,1017.02
2018-10-05T02:07:58.540Z,1017.00
2018-10-05T02:08:58.568Z,1017.00
2018-10-05T02:09:58.580Z,1016.96
2018-10-05T02:10:58.550Z,1016.99
2018-10-05T02:11:58.538Z,1016.98
2018-10-05T02:12:58.563Z,1017.00
2018-10-05T02:13:58.542Z,1016.97
2018-10-05T02:14:58.554Z,1016.97
2018-10-05T02:15:58.552Z,1016.97
2018-10-05T02:16:58.547Z,1016.97
2018-10-05T02:17:58.544Z,1016.97
2018-10-05T02:18:58.583Z,1016.98
2018-10-05T02:19:58.560Z,1016.95
2018-10-05T02:20:58.553Z,1016.92
2018-10-05T02:21:58.569Z,1016.89
2018-10-05T02:22:58.566Z,1016.86
2018-10-05T02:23:58.570Z,1016.88
2018-10-05T02:24:58.582Z,1016.84
2018-10-05T02:25:58.617Z,1016.86
2018-10-05T02:26:58.575Z,1016.85
2018-10-05T02:27:58.578Z,1016.85
2018-10-05T02:28:58.559Z,1016.85
2018-10-05T02:29:58.576Z,1016.87
2018-10-05T02:30:58.550Z,1016.84
2018-10-05T02:31:58.556Z,1016.82
2018-10-05T02:32:58.652Z,1016.79
2018-10-05T02:33:58.567Z,1016.79
2018-10-05T02:34:58.578Z,1016.78
2018-10-05T02:35:58.547Z,1016.75
2018-10-05T02:36:58.576Z,1016.79
2018-10-05T02:37:58.578Z,1016.76
2018-10-05T02:38:58.579Z,1016.75
2018-10-05T02:39:58.563Z,1016.74
2018-10-05T02:40:58.571Z,1016.71
2018-10-05T02:41:58.597Z,1016.70
2018-10-05T02:42:58.589Z,1016.70
2018-10-05T02:43:58.573Z,1016.68
2018-10-05T02:44:58.586Z,1016.70
2018-10-05T02:45:58.566Z,1016.69
2018-10-05T02:46:58.569Z,1016.68
2018-10-05T02:47:58.571Z,1016.71
2018-10-05T02:48:58.680Z,1016.67
2018-10-05T02:49:58.578Z,1016.65
2018-10-05T02:50:58.589Z,1016.69
2018-10-05T02:51:58.563Z,1016.70
2018-10-05T02:52:58.584Z,1016.72
2018-10-05T02:53:58.572Z,1016.70
2018-10-05T02:54:58.579Z,1016.73
2018-10-05T02:55:58.585Z,1016.68
2018-10-05T02:56:58.589Z,1016.66
2018-10-05T02:57:58.562Z,1016.62
2018-10-05T02:58:58.589Z,1016.67
2018-10-05T02:59:58.572Z,1016.65
2018-10-05T03:00:58.564Z,1016.65
2018-10-05T03:01:58.572Z,1016.63
2018-10-05T03:02:58.589Z,1016.62
2018-10-05T03:03:58.577Z,1016.59
2018-10-05T03:04:58.577Z,1016.56
2018-10-05T03:05:58.572Z,1016.57
2018-10-05T03:06:58.566Z,1016.55
2018-10-05T03:07:58.579Z,1016.54
2018-10-05T03:08:58.591Z,1016.52
2018-10-05T03:09:58.595Z,1016.53
2018-10-05T03:10:58.633Z,1016.56
2018-10-05T03:11:58.587Z,1016.51
2018-10-05T03:12:58.582Z,1016.54
2018-10-05T03:13:58.608Z,1016.50
2018-10-05T03:14:58.600Z,1016.49
2018-10-05T03:15:58.585Z,1016.46
2018-10-05T03:16:58.660Z,1016.46
2018-10-05T03:17:58.586Z,1016.48
2018-10-05T03:18:58.579Z,1016.49
2018-10-05T03:19:58.641Z,1016.46
2018-10-05T03:20:58.604Z,1016.47
2018-10-05T03:21:58.580Z,1016.46
2018-10-05T03:22:58.673Z,1016.45
2018-10-05T03:23:58.598Z,1016.40
2018-10-05T03:24:58.596Z,1016.40
2018-10-05T03:25:58.617Z,1016.38
2018-10-05T03:26:58.610Z,1016.38
2018-10-05T03:27:58.607Z,1016.32
2018-10-05T03:28:58.610Z,1016.30
2018-10-05T03:29:58.603Z,1016.30
2018-10-05T03:30:58.585Z,1016.26
2018-10-05T03:31:58.620Z,1016.27
2018-10-05T03:32:58.594Z,1016.26
2018-10-05T03:33:58.620Z,1016.27
2018-10-05T03:34:58.588Z,1016.27
2018-10-05T03:35:58.590Z,1016.28
2018-10-05T03:36:58.611Z,1016.25
2018-10-05T03:37:58.607Z,1016.31
2018-10-05T03:38:58.686Z,1016.24
2018-10-05T03:39:58.618Z,1016.21
2018-10-05T03:40:58.612Z,1016.24
2018-10-05T03:41:58.626Z,1016.20
2018-10-05T03:42:58.614Z,1016.22
2018-10-05T03:43:58.588Z,1016.19
2018-10-05T03:44:58.582Z,1016.19
2018-10-05T03:45:58.617Z,1016.17
2018-10-05T03:46:58.596Z,1016.20
2018-10-05T03:47:58.603Z,1016.17
2018-10-05T03:48:58.595Z,1016.17
2018-10-05T03:49:58.595Z,1016.17
2018-10-05T03:50:58.591Z,1016.22
2018-10-05T03:51:58.624Z,1016.20
2018-10-05T03:52:58.604Z,1016.19
2018-10-05T03:53:58.600Z,1016.20
2018-10-05T03:54:58.629Z,1016.20
2018-10-05T03:55:58.605Z,1016.20
2018-10-05T03:56:58.595Z,1016.18
2018-10-05T03:57:58.597Z,1016.18
2018-10-05T03:58:58.647Z,1016.18
2018-10-05T03:59:58.634Z,1016.14
2018-10-05T04:00:58.600Z,1016.15
2018-10-05T04:01:58.614Z,1016.14
2018-10-05T04:02:58.620Z,1016.15
2018-10-05T04:03:58.608Z,1016.14
2018-10-05T04:04:58.606Z,1016.14
2018-10-05T04:05:58.622Z,1016.14
2018-10-05T04:06:58.595Z,1016.16
2018-10-05T04:07:58.607Z,1016.14
2018-10-05T04:08:58.622Z,1016.11
2018-10-05T04:09:58.598Z,1016.11
2018-10-05T04:10:58.655Z,1016.10
2018-10-05T04:11:58.648Z,1016.09
2018-10-05T04:12:58.610Z,1016.08
2018-10-05T04:13:58.650Z,1016.08
2018-10-05T04:14:58.595Z,1016.09
2018-10-05T04:15:58.620Z,1016.10
2018-10-05T04:16:58.610Z,1016.06
2018-10-05T04:17:58.603Z,1016.07
2018-10-05T04:18:58.662Z,1016.09
2018-10-05T04:19:58.621Z,1016.08
2018-10-05T04:20:58.605Z,1016.09
2018-10-05T04:21:58.613Z,1016.07
2018-10-05T04:22:58.618Z,1016.05
2018-10-05T04:23:58.653Z,1016.08
2018-10-05T04:24:58.629Z,1016.08
2018-10-05T04:25:58.669Z,1016.05
2018-10-05T04:26:58.607Z,1016.03
2018-10-05T04:27:58.625Z,1016.07
2018-10-05T04:28:58.627Z,1016.05
2018-10-05T04:29:58.603Z,1016.04
2018-10-05T04:30:58.605Z,1016.00
2018-10-05T04:31:58.644Z,1015.99
2018-10-05T04:32:58.671Z,1015.99
2018-10-05T04:33:58.605Z,1015.98
2018-10-05T04:34:58.621Z,1015.98
2018-10-05T04:35:58.652Z,1015.97
2018-10-05T04:36:58.611Z,1015.98
2018-10-05T04:37:58.608Z,1015.94
2018-10-05T04:38:58.610Z,1015.97
2018-10-05T04:39:58.621Z,1015.95
2018-10-05T04:40:58.624Z,1015.97
2018-10-05T04:41:58.652Z,1015.95
2018-10-05T04:42:58.614Z,1015.94
2018-10-05T04:43:58.614Z,1015.90
2018-10-05T04:44:58.611Z,1015.87
2018-10-05T04:45:58.618Z,1015.88
2018-10-05T04:46:58.624Z,1015.89
2018-10-05T04:47:58.620Z,1015.85
2018-10-05T04:48:58.657Z,1015.89
2018-10-05T04:49:58.630Z,1015.88
2018-10-05T04:50:58.621Z,1015.85
2018-10-05T04:51:58.641Z,1015.86
2018-10-05T04:52:58.609Z,1015.86
2018-10-05T04:53:58.634Z,1015.87
2018-10-05T04:54:58.649Z,1015.88
2018-10-05T04:55:58.653Z,1015.87
2018-10-05T04:56:58.715Z,1015.87
2018-10-05T04:57:58.641Z,1015.88
2018-10-05T04:58:58.641Z,1015.88
2018-10-05T04:59:58.621Z,1015.84
2018-10-05T05:00:58.618Z,1015.86
2018-10-05T05:01:58.615Z,1015.86
2018-10-05T05:02:58.625Z,1015.86
2018-10-05T05:03:58.631Z,1015.83
2018-10-05T05:04:58.647Z,1015.81
2018-10-05T05:05:58.618Z,1015.80
2018-10-05T05:06:58.618Z,1015.79
2018-10-05T05:07:58.619Z,1015.79
2018-10-05T05:08:58.621Z,1015.82
2018-10-05T05:09:58.756Z,1015.76
2018-10-05T05:10:58.634Z,1015.78
2018-10-05T05:11:58.624Z,1015.78
2018-10-05T05:12:58.624Z,1015.76
2018-10-05T05:13:58.624Z,1015.76
2018-10-05T05:14:58.646Z,1015.79
2018-10-05T05:15:58.625Z,1015.81
2018-10-05T05:16:58.642Z,1015.77
2018-10-05T05:17:58.625Z,1015.80
2018-10-05T05:18:58.634Z,1015.78
2018-10-05T05:19:58.625Z,1015.79
2018-10-05T05:20:58.614Z,1015.80
2018-10-05T05:21:58.631Z,1015.80
2018-10-05T05:22:58.637Z,1015.81
2018-10-05T05:23:58.646Z,1015.75
2018-10-05T05:24:58.666Z,1015.76
2018-10-05T05:25:58.625Z,1015.75
2018-10-05T05:26:58.635Z,1015.75
2018-10-05T05:27:58.654Z,1015.77
2018-10-05T05:28:58.643Z,1015.78
2018-10-05T05:29:58.633Z,1015.78
2018-10-05T05:30:58.619Z,1015.77
2018-10-05T05:31:58.646Z,1015.78
2018-10-05T05:32:58.638Z,1015.76
2018-10-05T05:33:58.722Z,1015.77
2018-10-05T05:34:58.655Z,1015.76
2018-10-05T05:35:58.628Z,1015.78
2018-10-05T05:36:58.660Z,1015.79
2018-10-05T05:37:58.630Z,1015.81
2018-10-05T05:38:58.630Z,1015.81
2018-10-05T05:39:58.654Z,1015.76
2018-10-05T05:40:58.644Z,1015.78
2018-10-05T05:41:58.644Z,1015.78
2018-10-05T05:42:58.637Z,1015.81
2018-10-05T05:43:58.631Z,1015.76
2018-10-05T05:44:58.627Z,1015.76
2018-10-05T05:45:58.617Z,1015.75
2018-10-05T05:46:58.643Z,1015.77
2018-10-05T05:47:58.645Z,1015.76
2018-10-05T05:48:58.679Z,1015.80
2018-10-05T05:49:58.630Z,1015.79
2018-10-05T05:50:58.644Z,1015.78
2018-10-05T05:51:58.660Z,1015.76
2018-10-05T05:52:58.631Z,1015.71
2018-10-05T05:53:58.679Z,1015.78
2018-10-05T05:54:58.640Z,1015.76
2018-10-05T05:55:58.661Z,1015.74
2018-10-05T05:56:58.635Z,1015.77
2018-10-05T05:57:58.632Z,1015.78
2018-10-05T05:58:58.648Z,1015.76
2018-10-05T05:59:58.635Z,1015.76
2018-10-05T06:00:58.674Z,1015.77
2018-10-05T06:01:58.643Z,1015.74
2018-10-05T06:02:58.683Z,1015.79
2018-10-05T06:03:58.641Z,1015.73
2018-10-05T06:04:58.639Z,1015.75
2018-10-05T06:05:58.625Z,1015.73
2018-10-05T06:06:58.645Z,1015.75
2018-10-05T06:07:58.725Z,1015.77
2018-10-05T06:08:58.660Z,1015.73
2018-10-05T06:09:58.645Z,1015.74
2018-10-05T06:10:58.673Z,1015.77
2018-10-05T06:11:58.654Z,1015.76
2018-10-05T06:12:59.297Z,1015.70
2018-10-05T06:13:58.651Z,1015.71
2018-10-05T06:14:58.671Z,1015.73
2018-10-05T06:15:58.667Z,1015.71
2018-10-05T06:16:58.663Z,1015.74
2018-10-05T06:17:58.638Z,1015.76
2018-10-05T06:18:58.647Z,1015.73
2018-10-05T06:19:58.651Z,1015.70
2018-10-05T06:20:58.637Z,1015.74
2018-10-05T06:21:58.812Z,1015.75
2018-10-05T06:22:58.754Z,1015.73
2018-10-05T06:23:58.645Z,1015.70
2018-10-05T06:24:58.719Z,1015.74
2018-10-05T06:25:58.666Z,1015.74
2018-10-05T06:26:58.662Z,1015.76
2018-10-05T06:27:58.664Z,1015.77
2018-10-05T06:28:58.673Z,1015.72
2018-10-05T06:29:58.666Z,1015.73
2018-10-05T06:30:58.824Z,1015.73
2018-10-05T06:31:58.657Z,1015.73
2018-10-05T06:32:58.699Z,1015.73
2018-10-05T06:33:58.670Z,1015.76
2018-10-05T06:34:58.674Z,1015.76
2018-10-05T06:35:58.651Z,1015.78
2018-10-05T06:36:58.649Z,1015.78
2018-10-05T06:37:58.670Z,1015.81
2018-10-05T06:38:58.750Z,1015.78
2018-10-05T06:39:58.659Z,1015.79
2018-10-05T06:40:58.684Z,1015.80
2018-10-05T06:41:58.772Z,1015.83
2018-10-05T06:42:58.658Z,1015.86
2018-10-05T06:43:58.654Z,1015.85
2018-10-05T06:44:58.647Z,1015.85
2018-10-05T06:45:58.676Z,1015.83
2018-10-05T06:46:58.676Z,1015.85
2018-10-05T06:47:58.652Z,1015.83
2018-10-05T06:48:58.677Z,1015.88
2018-10-05T06:49:58.676Z,1015.81
2018-10-05T06:50:58.659Z,1015.80
2018-10-05T06:51:58.683Z,1015.85
2018-10-05T06:52:58.663Z,1015.80
2018-10-05T06:53:58.698Z,1015.86
2018-10-05T06:54:58.673Z,1015.87
2018-10-05T06:55:58.671Z,1015.88
2018-10-05T06:56:58.670Z,1015.87
2018-10-05T06:57:58.649Z,1015.89
2018-10-05T06:58:58.654Z,1015.87
2018-10-05T06:59:58.700Z,1015.84
2018-10-05T07:00:58.699Z,1015.84
2018-10-05T07:01:58.773Z,1015.85
2018-10-05T07:02:58.667Z,1015.81
2018-10-05T07:03:58.680Z,1015.83
2018-10-05T07:04:58.663Z,1015.83
2018-10-05T07:05:58.661Z,1015.81
2018-10-05T07:06:58.669Z,1015.85
2018-10-05T07:07:58.677Z,1015.86
2018-10-05T07:08:58.655Z,1015.91
2018-10-05T07:09:58.679Z,1015.96
2018-10-05T07:10:58.682Z,1016.02
2018-10-05T07:11:58.672Z,1016.05
2018-10-05T07:12:58.761Z,1016.00
2018-10-05T07:13:58.676Z,1016.08
2018-10-05T07:14:58.701Z,1016.03
2018-10-05T07:15:58.742Z,1016.07
2018-10-05T07:16:58.730Z,1016.11
2018-10-05T07:17:58.682Z,1016.11
2018-10-05T07:18:58.667Z,1016.03
2018-10-05T07:19:58.702Z,1016.05
2018-10-05T07:20:58.721Z,1016.10
2018-10-05T07:21:58.751Z,1016.02
2018-10-05T07:22:58.739Z,1016.09
2018-10-05T07:23:58.696Z,1016.08
2018-10-05T07:24:58.696Z,1016.09
2018-10-05T07:25:58.680Z,1016.08
2018-10-05T07:26:58.700Z,1016.09
2018-10-05T07:27:58.686Z,1016.08
2018-10-05T07:28:58.708Z,1016.02
2018-10-05T07:29:58.715Z,1016.05
2018-10-05T07:30:58.751Z,1016.08
2018-10-05T07:31:58.726Z,1016.06
2018-10-05T07:32:58.704Z,1016.09
2018-10-05T07:33:58.708Z,1016.02
2018-10-05T07:34:58.722Z,1016.10
2018-10-05T07:35:58.693Z,1016.07
2018-10-05T07:36:58.761Z,1016.11
2018-10-05T07:37:58.746Z,1016.13
2018-10-05T07:38:58.777Z,1016.12
2018-10-05T07:39:58.722Z,1016.13
2018-10-05T07:40:58.725Z,1016.13
2018-10-05T07:41:58.723Z,1016.13
2018-10-05T07:42:58.816Z,1016.15
2018-10-05T07:43:58.737Z,1016.16
2018-10-05T07:44:58.728Z,1016.16
2018-10-05T07:45:58.753Z,1016.15
2018-10-05T07:46:58.744Z,1016.16
2018-10-05T07:47:58.744Z,1016.19
2018-10-05T07:48:58.796Z,1016.18
2018-10-05T07:49:58.778Z,1016.16
2018-10-05T07:50:58.774Z,1016.15
2018-10-05T07:51:58.884Z,1016.15
2018-10-05T07:52:58.846Z,1016.14
2018-10-05T07:53:58.814Z,1016.17
2018-10-05T07:54:58.805Z,1016.18
2018-10-05T07:55:58.802Z,1016.18
2018-10-05T07:56:58.794Z,1016.19
2018-10-05T07:57:58.884Z,1016.20
2018-10-05T07:58:58.797Z,1016.19
2018-10-05T07:59:58.814Z,1016.23
2018-10-05T08:00:58.793Z,1016.18
2018-10-05T08:01:58.804Z,1016.17
2018-10-05T08:02:58.848Z,1016.23
2018-10-05T08:03:58.830Z,1016.22
2018-10-05T08:04:58.843Z,1016.21
2018-10-05T08:05:58.865Z,1016.21
2018-10-05T08:06:59.240Z,1016.18
2018-10-05T08:07:58.902Z,1016.22
2018-10-05T08:08:58.884Z,1016.26
2018-10-05T08:09:58.859Z,1016.28
2018-10-05T08:10:58.888Z,1016.30
2018-10-05T08:11:58.873Z,1016.27
2018-10-05T08:12:58.902Z,1016.19
2018-10-05T08:13:58.902Z,1016.19
2018-10-05T08:14:58.884Z,1016.16
2018-10-05T08:15:58.887Z,1016.18
2018-10-05T08:16:58.931Z,1016.21
2018-10-05T08:17:58.899Z,1016.16
2018-10-05T08:18:58.917Z,1016.19
2018-10-05T08:19:58.945Z,1016.22
2018-10-05T08:20:59.165Z,1016.19
2018-10-05T08:21:58.918Z,1016.23
2018-10-05T08:22:59.012Z,1016.17
2018-10-05T08:23:58.977Z,1016.19
2018-10-05T08:24:59.778Z,1016.13
2018-10-05T08:25:59.198Z,1016.13
2018-10-05T08:26:59.021Z,1016.18
2018-10-05T08:27:59.045Z,1016.15
2018-10-05T08:28:58.999Z,1016.17
2018-10-05T08:29:58.972Z,1016.16
2018-10-05T08:30:59.036Z,1016.13
2018-10-05T08:31:59.018Z,1016.15
2018-10-05T08:32:58.992Z,1016.13
2018-10-05T08:33:59.038Z,1016.14
2018-10-05T08:34:59.009Z,1016.16
2018-10-05T08:35:59.010Z,1016.16
2018-10-05T08:36:59.075Z,1016.16
2018-10-05T08:37:59.073Z,1016.17
2018-10-05T08:38:59.069Z,1016.15
2018-10-05T08:39:59.079Z,1016.12
2018-10-05T08:40:59.089Z,1016.11
2018-10-05T08:41:59.109Z,1016.12
2018-10-05T08:42:59.076Z,1016.07
2018-10-05T08:43:59.084Z,1016.08
2018-10-05T08:44:59.144Z,1016.05
2018-10-05T08:45:59.150Z,1016.02
2018-10-05T08:46:59.119Z,1016.07
2018-10-05T08:47:59.162Z,1016.01
2018-10-05T08:48:59.155Z,1016.03
2018-10-05T08:49:59.190Z,1016.07
2018-10-05T08:50:59.217Z,1016.05
2018-10-05T08:51:59.224Z,1016.00
2018-10-05T08:52:59.150Z,1016.01
2018-10-05T08:53:59.157Z,1015.99
2018-10-05T08:54:59.191Z,1015.99
2018-10-05T08:55:59.216Z,1015.96
2018-10-05T08:56:59.236Z,1015.98
2018-10-05T08:57:59.206Z,1016.00
2018-10-05T08:58:59.256Z,1015.96
2018-10-05T08:59:59.321Z,1015.97
2018-10-05T09:00:59.255Z,1015.98
2018-10-05T09:01:59.307Z,1015.96
2018-10-05T09:02:59.274Z,1015.94
2018-10-05T09:03:59.310Z,1015.92
2018-10-05T09:04:59.269Z,1015.96
2018-10-05T09:05:59.301Z,1016.00
2018-10-05T09:06:59.309Z,1015.99
2018-10-05T09:07:59.356Z,1015.98
2018-10-05T09:08:59.343Z,1015.93
2018-10-05T09:09:59.311Z,1015.99
2018-10-05T09:10:59.425Z,1015.91
2018-10-05T09:11:59.363Z,1015.87
2018-10-05T09:12:59.367Z,1015.84
2018-10-05T09:13:59.405Z,1015.84
2018-10-05T09:14:59.486Z,1015.87
2018-10-05T09:15:59.413Z,1015.90
2018-10-05T09:16:59.448Z,1015.84
2018-10-05T09:17:59.430Z,1015.85
2018-10-05T09:18:59.442Z,1015.82
2018-10-05T09:19:59.418Z,1015.80
2018-10-05T09:20:59.769Z,1015.84
2018-10-05T09:21:59.488Z,1015.79
2018-10-05T09:22:59.485Z,1015.82
2018-10-05T09:23:59.558Z,1015.79
2018-10-05T09:24:59.565Z,1015.75
2018-10-05T09:25:59.731Z,1015.76
2018-10-05T09:27:00.431Z,1015.76
2018-10-05T09:27:59.559Z,1015.80
2018-10-05T09:28:59.574Z,1015.77
2018-10-05T09:30:00.585Z,1015.76
2018-10-05T09:30:59.610Z,1015.75
2018-10-05T09:31:59.607Z,1015.72
2018-10-05T09:32:59.621Z,1015.70
2018-10-05T09:34:02.491Z,1015.71
2018-10-05T09:34:59.645Z,1015.74
2018-10-05T09:35:59.661Z,1015.87
2018-10-05T09:36:59.642Z,1016.08
2018-10-05T09:37:59.822Z,1016.30
2018-10-05T09:38:59.640Z,1016.54
2018-10-05T09:39:59.657Z,1016.54
2018-10-05T09:40:59.722Z,1016.39
2018-10-05T09:41:59.700Z,1016.38
2018-10-05T09:43:00.697Z,1016.24
2018-10-05T09:43:59.713Z,1016.04
2018-10-05T09:44:59.823Z,1015.98
2018-10-05T09:45:59.809Z,1015.86
2018-10-05T09:46:59.734Z,1015.81
2018-10-05T09:47:59.769Z,1015.73
2018-10-05T09:48:59.834Z,1015.74
2018-10-05T09:49:59.786Z,1015.68
2018-10-05T09:50:59.826Z,1015.68
2018-10-05T09:51:59.835Z,1015.59
2018-10-05T09:52:59.854Z,1015.57
2018-10-05T09:53:59.867Z,1015.56
2018-10-05T09:54:59.884Z,1015.51
2018-10-05T09:55:59.879Z,1015.48
2018-10-05T09:56:59.869Z,1015.40
2018-10-05T09:57:59.865Z,1015.36
2018-10-05T09:58:59.888Z,1015.35
2018-10-05T09:59:59.976Z,1015.26
2018-10-05T10:00:59.924Z,1015.25
2018-10-05T10:01:59.912Z,1015.19
2018-10-05T10:02:59.939Z,1015.17
2018-10-05T10:04:00.000Z,1015.14
2018-10-05T10:05:00.057Z,1015.14
2018-10-05T10:05:59.968Z,1015.03
2018-10-05T10:06:59.988Z,1015.04
2018-10-05T10:08:00.098Z,1014.99
2018-10-05T10:09:00.101Z,1014.92
2018-10-05T10:10:00.004Z,1014.94
2018-10-05T10:11:00.029Z,1014.94
2018-10-05T10:12:00.026Z,1014.88
2018-10-05T10:13:00.070Z,1014.90
2018-10-05T10:14:00.512Z,1014.92
2018-10-05T10:15:00.134Z,1014.84
2018-10-05T10:16:00.065Z,1014.85
2018-10-05T10:17:00.136Z,1014.85
2018-10-05T10:18:00.094Z,1014.85
2018-10-05T10:19:00.170Z,1014.86
2018-10-05T10:20:00.137Z,1014.91
2018-10-05T10:21:00.187Z,1014.91
2018-10-05T10:22:00.170Z,1014.90
2018-10-05T10:23:00.171Z,1014.89
2018-10-05T10:24:00.186Z,1014.89
2018-10-05T10:25:00.209Z,1014.90
2018-10-05T10:26:00.196Z,1014.90
2018-10-05T10:27:00.228Z,1014.85
2018-10-05T10:28:00.329Z,1014.88
2018-10-05T10:29:00.354Z,1014.85
2018-10-05T10:30:00.295Z,1014.82
2018-10-05T10:31:00.291Z,1014.87
2018-10-05T10:32:00.291Z,1014.85
2018-10-05T10:33:00.327Z,1014.79
2018-10-05T10:34:00.383Z,1014.80
2018-10-05T10:35:00.330Z,1014.80
2018-10-05T10:36:00.341Z,1014.77
2018-10-05T10:37:00.390Z,1014.80
2018-10-05T10:38:00.373Z,1014.77
2018-10-05T10:39:00.388Z,1014.82
2018-10-05T10:40:00.498Z,1014.80
2018-10-05T10:41:00.417Z,1014.80
2018-10-05T10:42:00.442Z,1014.74
2018-10-05T10:43:00.468Z,1014.67
2018-10-05T10:44:00.474Z,1014.70
2018-10-05T10:45:00.485Z,1014.60
2018-10-05T10:46:00.487Z,1014.61
2018-10-05T10:47:00.508Z,1014.59
2018-10-05T10:48:00.578Z,1014.56
2018-10-05T10:49:00.574Z,1014.58
2018-10-05T10:50:00.569Z,1014.56
2018-10-05T10:51:00.580Z,1014.57
2018-10-05T10:52:00.669Z,1014.59
2018-10-05T10:53:00.604Z,1014.53
2018-10-05T10:54:00.702Z,1014.51
2018-10-05T10:55:00.661Z,1014.43
2018-10-05T10:56:00.655Z,1014.47
2018-10-05T10:57:00.650Z,1014.40
2018-10-05T10:58:00.660Z,1014.42
2018-10-05T10:59:00.737Z,1014.43
2018-10-05T11:00:00.695Z,1014.39
2018-10-05T11:01:00.750Z,1014.36
2018-10-05T11:02:00.746Z,1014.40
2018-10-05T11:03:00.773Z,1014.42
2018-10-05T11:04:00.880Z,1014.47
2018-10-05T11:05:00.851Z,1014.43
2018-10-05T11:06:00.794Z,1014.47
2018-10-05T11:07:00.807Z,1014.46
2018-10-05T11:08:00.935Z,1014.38
2018-10-05T11:09:00.872Z,1014.35
2018-10-05T11:10:00.852Z,1014.35
2018-10-05T11:11:00.946Z,1014.37
2018-10-05T11:12:00.951Z,1014.31
2018-10-05T11:13:00.931Z,1014.30
2018-10-05T11:14:00.897Z,1014.32
2018-10-05T11:15:01.011Z,1014.32
2018-10-05T11:16:00.951Z,1014.29
2018-10-05T11:17:01.000Z,1014.23
2018-10-05T11:18:00.993Z,1014.24
2018-10-05T11:19:01.001Z,1014.23
2018-10-05T11:20:01.007Z,1014.20
2018-10-05T11:21:01.010Z,1014.12
2018-10-05T11:22:01.056Z,1014.09
2018-10-05T11:23:01.058Z,1014.02
2018-10-05T11:24:01.076Z,1014.02
2018-10-05T11:25:01.117Z,1014.06
2018-10-05T11:26:01.143Z,1014.01
2018-10-05T11:27:03.902Z,1013.92
2018-10-05T11:28:17.004Z,1013.76
2018-10-05T11:29:02.921Z,1013.64
2018-10-05T11:30:01.142Z,1013.61
2018-10-05T11:31:01.168Z,1013.56
2018-10-05T11:32:01.176Z,1013.48
2018-10-05T11:33:01.228Z,1013.46
2018-10-05T11:34:01.895Z,1013.38
2018-10-05T11:35:01.275Z,1013.36
2018-10-05T11:36:01.905Z,1013.37
2018-10-05T11:37:01.213Z,1013.30
2018-10-05T11:38:01.250Z,1013.27
2018-10-05T11:39:01.284Z,1013.20
2018-10-05T11:40:01.274Z,1013.18
2018-10-05T11:41:01.260Z,1013.14
2018-10-05T11:42:01.308Z,1013.10
2018-10-05T11:43:01.300Z,1013.14
2018-10-05T11:44:01.390Z,1013.07
2018-10-05T11:45:01.330Z,1013.04
2018-10-05T11:46:01.369Z,1013.04
2018-10-05T11:47:01.321Z,1013.05
2018-10-05T11:48:01.336Z,1013.00
2018-10-05T11:49:01.330Z,1012.97
2018-10-05T11:50:01.354Z,1012.96
2018-10-05T11:51:01.366Z,1012.92
2018-10-05T11:52:07.418Z,1012.90
2018-10-05T11:53:01.456Z,1012.89
2018-10-05T11:54:01.435Z,1012.87
2018-10-05T11:55:01.423Z,1012.85
2018-10-05T11:56:01.395Z,1012.80
2018-10-05T11:57:01.405Z,1012.78
2018-10-05T11:58:01.569Z,1012.78
2018-10-05T11:59:01.445Z,1012.77
2018-10-05T12:00:02.067Z,1012.73
2018-10-05T12:01:01.464Z,1012.76
2018-10-05T12:02:01.460Z,1012.72
2018-10-05T12:03:01.444Z,1012.71
2018-10-05T12:04:02.003Z,1012.67
2018-10-05T12:05:01.565Z,1012.66
2018-10-05T12:06:01.484Z,1012.62